Time;durP1;ratioP1;P1;durP2;ratioP2;P2;SDS_P1;SDS_P2;PMS_P1;PMS_P2;Temp;Humidity;BMP_temperature;BMP_pressure;BME280_temperature;BME280_humidity;BME280_pressure;Samples;Min_cycle;Max_cycle;Signal;HPM_P1;HPM_P2
2023/12/30 00:01:52;;;;;;;0.90;0.90;;;;;;;;;;5076988;28;20478;-80
2023/12/30 00:04:19;;;;;;;1.63;1.53;;;;;;;;;;5076641;28;20460;-76
2023/12/30 00:06:45;;;;;;;1.30;1.20;;;;;;;;;;5061488;28;20643;-76
2023/12/30 00:09:13;;;;;;;1.00;0.87;;;;;;;;;;5056436;28;20473;-77
2023/12/30 00:11:39;;;;;;;5.60;1.47;;;;;;;;;;5055161;28;20516;-77
2023/12/30 00:14:06;;;;;;;2.30;1.07;;;;;;;;;;5056458;28;20520;-76
2023/12/30 00:16:32;;;;;;;1.73;1.10;;;;;;;;;;5053745;28;21049;-77
2023/12/30 00:18:59;;;;;;;2.47;0.90;;;;;;;;;;5047302;28;20515;-77
2023/12/30 00:21:25;;;;;;;2.10;1.17;;;;;;;;;;5057759;28;20607;-79
2023/12/30 00:23:51;;;;;;;1.47;0.90;;;;;;;;;;5056982;28;20483;-79
2023/12/30 00:26:23;;;;;;;1.10;1.00;;;;;;;;;;5057125;28;20475;-79
2023/12/30 00:28:49;;;;;;;0.90;0.90;;;;;;;;;;5057398;28;20469;-75
2023/12/30 00:31:22;;;;;;;1.00;0.90;;;;;;;;;;5056710;28;20528;-76
2023/12/30 00:33:49;;;;;;;1.10;1.00;;;;;;;;;;5050576;28;20457;-77
2023/12/30 00:36:15;;;;;;;1.00;0.90;;;;;;;;;;5057164;28;20457;-79
2023/12/30 00:38:41;;;;;;;4.30;1.30;;;;;;;;;;5052494;28;20481;-79
2023/12/30 00:41:08;;;;;;;0.90;0.90;;;;;;;;;;5055372;28;20465;-79
2023/12/30 00:43:36;;;;;;;1.00;1.00;;;;;;;;;;5056439;28;20496;-80
2023/12/30 00:46:02;;;;;;;1.37;1.20;;;;;;;;;;5056835;28;20475;-79
2023/12/30 00:48:28;;;;;;;2.87;1.20;;;;;;;;;;5056681;28;20580;-79
2023/12/30 00:50:55;;;;;;;1.90;0.90;;;;;;;;;;5056684;28;20509;-73
2023/12/30 00:53:21;;;;;;;2.00;1.07;;;;;;;;;;5056419;28;20491;-79
2023/12/30 00:55:48;;;;;;;0.93;0.93;;;;;;;;;;5056589;28;20678;-79
2023/12/30 00:58:14;;;;;;;1.50;0.97;;;;;;;;;;5055767;28;20473;-77
2023/12/30 01:00:42;;;;;;;1.73;0.80;;;;;;;;;;5049637;28;20553;-80
2023/12/30 01:03:08;;;;;;;3.43;0.83;;;;;;;;;;5051250;28;20516;-76
2023/12/30 01:05:34;;;;;;;1.00;0.90;;;;;;;;;;5057558;28;20520;-80
2023/12/30 01:08:01;;;;;;;1.57;0.93;;;;;;;;;;5065318;28;20495;-78
2023/12/30 01:10:27;;;;;;;5.50;0.90;;;;;;;;;;5076493;28;20500;-80
2023/12/30 01:12:53;;;;;;;1.20;1.10;;;;;;;;;;5075881;28;20907;-76
2023/12/30 01:15:20;;;;;;;1.37;0.90;;;;;;;;;;5075909;28;20563;-77
2023/12/30 01:17:48;;;;;;;1.10;1.00;;;;;;;;;;5076675;28;20931;-79
2023/12/30 01:20:14;;;;;;;1.13;1.03;;;;;;;;;;5076076;28;20576;-79
2023/12/30 01:22:40;;;;;;;4.50;1.13;;;;;;;;;;5076093;28;20478;-77
2023/12/30 01:25:08;;;;;;;3.30;1.27;;;;;;;;;;5075849;28;20531;-80
2023/12/30 01:27:34;;;;;;;2.00;1.20;;;;;;;;;;5075631;28;20479;-80
2023/12/30 01:30:01;;;;;;;0.73;0.70;;;;;;;;;;5070328;28;20492;-79
2023/12/30 01:32:27;;;;;;;0.80;0.80;;;;;;;;;;5073508;28;20482;-79
2023/12/30 01:34:55;;;;;;;1.17;0.97;;;;;;;;;;5075406;28;20476;-79
2023/12/30 01:37:21;;;;;;;3.37;1.43;;;;;;;;;;5068529;28;20440;-78
2023/12/30 01:39:48;;;;;;;1.03;0.93;;;;;;;;;;5076372;28;20444;-76
2023/12/30 01:42:14;;;;;;;3.67;1.07;;;;;;;;;;5075259;28;20456;-79
2023/12/30 01:44:40;;;;;;;1.80;1.10;;;;;;;;;;5075357;28;20502;-79
2023/12/30 01:47:07;;;;;;;2.43;1.20;;;;;;;;;;5075585;28;20507;-79
2023/12/30 01:49:33;;;;;;;1.67;1.17;;;;;;;;;;5075745;28;20462;-80
2023/12/30 01:52:01;;;;;;;2.83;1.20;;;;;;;;;;5075703;28;20464;-74
2023/12/30 01:54:28;;;;;;;2.83;2.00;;;;;;;;;;5074607;28;20543;-77
2023/12/30 01:56:54;;;;;;;3.50;1.20;;;;;;;;;;5075829;28;20448;-79
2023/12/30 01:59:21;;;;;;;6.20;1.57;;;;;;;;;;5075519;28;20769;-80
2023/12/30 02:01:47;;;;;;;1.83;1.37;;;;;;;;;;5075916;28;20499;-80
2023/12/30 02:04:14;;;;;;;2.07;1.10;;;;;;;;;;5075049;28;20948;-77
2023/12/30 02:06:40;;;;;;;2.17;1.13;;;;;;;;;;5060233;28;21170;-78
2023/12/30 02:09:08;;;;;;;4.03;1.30;;;;;;;;;;5054968;28;20498;-75
2023/12/30 02:11:35;;;;;;;2.73;1.20;;;;;;;;;;5054637;28;20885;-77
2023/12/30 02:14:02;;;;;;;1.10;1.00;;;;;;;;;;5054769;28;20544;-77
2023/12/30 02:16:28;;;;;;;2.30;1.80;;;;;;;;;;5054461;28;20461;-80
2023/12/30 02:18:54;;;;;;;4.37;1.20;;;;;;;;;;5050161;28;20539;-80
2023/12/30 02:21:21;;;;;;;2.20;1.13;;;;;;;;;;5055228;28;20961;-79
2023/12/30 02:23:52;;;;;;;4.70;1.20;;;;;;;;;;5055141;28;20667;-79
2023/12/30 02:26:19;;;;;;;3.50;1.20;;;;;;;;;;5054757;28;20483;-79
2023/12/30 02:28:45;;;;;;;2.90;1.30;;;;;;;;;;5055235;28;20516;-79
2023/12/30 02:31:11;;;;;;;2.73;1.37;;;;;;;;;;5055115;28;20472;-78
2023/12/30 02:33:38;;;;;;;3.27;1.30;;;;;;;;;;5054879;28;20488;-76
2023/12/30 02:36:05;;;;;;;1.87;1.50;;;;;;;;;;5054760;28;20520;-80
2023/12/30 02:38:32;;;;;;;2.30;1.43;;;;;;;;;;5055081;28;20539;-77
2023/12/30 02:41:00;;;;;;;3.47;1.20;;;;;;;;;;5049333;28;20472;-77
2023/12/30 02:43:26;;;;;;;3.27;1.50;;;;;;;;;;5056887;28;20489;-77
2023/12/30 02:45:55;;;;;;;1.20;1.03;;;;;;;;;;5054600;28;20908;-77
2023/12/30 02:48:21;;;;;;;2.80;1.27;;;;;;;;;;5059002;28;20480;-76
2023/12/30 02:50:47;;;;;;;3.90;2.00;;;;;;;;;;5058922;28;20531;-79
2023/12/30 02:53:14;;;;;;;2.67;1.20;;;;;;;;;;5058593;28;20524;-78
2023/12/30 02:55:40;;;;;;;2.60;1.47;;;;;;;;;;5055154;28;20452;-76
2023/12/30 02:58:08;;;;;;;3.27;1.17;;;;;;;;;;5052287;28;20540;-79
2023/12/30 03:00:34;;;;;;;2.27;1.50;;;;;;;;;;5058804;28;20538;-77
2023/12/30 03:03:01;;;;;;;1.83;1.37;;;;;;;;;;5059154;28;20532;-79
2023/12/30 03:05:28;;;;;;;3.50;1.50;;;;;;;;;;5048065;28;20590;-77
2023/12/30 03:07:57;;;;;;;1.87;1.40;;;;;;;;;;5051373;28;20476;-80
2023/12/30 03:10:23;;;;;;;2.27;1.40;;;;;;;;;;5049300;28;20972;-77
2023/12/30 03:12:50;;;;;;;4.50;1.47;;;;;;;;;;5058078;28;20460;-78
2023/12/30 03:15:18;;;;;;;5.93;1.37;;;;;;;;;;5057255;28;20512;-77
2023/12/30 03:17:44;;;;;;;1.60;1.50;;;;;;;;;;5058876;28;20487;-77
2023/12/30 03:20:10;;;;;;;2.43;1.50;;;;;;;;;;5058430;28;20567;-76
2023/12/30 03:22:37;;;;;;;2.90;1.50;;;;;;;;;;5058036;28;20448;-77
2023/12/30 03:25:04;;;;;;;7.30;1.30;;;;;;;;;;5058312;28;20874;-80
2023/12/30 03:27:31;;;;;;;2.83;1.53;;;;;;;;;;5051127;28;20473;-75
2023/12/30 03:29:57;;;;;;;4.00;2.10;;;;;;;;;;5050527;28;20517;-77
2023/12/30 03:32:25;;;;;;;6.40;1.93;;;;;;;;;;5057989;28;20886;-78
2023/12/30 03:34:51;;;;;;;3.13;1.40;;;;;;;;;;5057894;28;20894;-78
2023/12/30 03:37:18;;;;;;;2.60;1.87;;;;;;;;;;5058321;28;21092;-80
2023/12/30 03:39:44;;;;;;;3.63;1.80;;;;;;;;;;5058404;28;20500;-80
2023/12/30 03:42:11;;;;;;;3.10;1.53;;;;;;;;;;5057591;28;20495;-75
2023/12/30 03:44:37;;;;;;;2.97;1.90;;;;;;;;;;5057749;28;20483;-79
2023/12/30 03:47:03;;;;;;;4.90;1.90;;;;;;;;;;5050111;28;20517;-77
2023/12/30 03:49:31;;;;;;;6.53;1.63;;;;;;;;;;5057319;28;20492;-76
2023/12/30 03:51:58;;;;;;;8.03;1.80;;;;;;;;;;5056088;28;20448;-76
2023/12/30 03:54:24;;;;;;;4.50;1.20;;;;;;;;;;5054016;28;20504;-77
2023/12/30 03:56:51;;;;;;;4.80;1.60;;;;;;;;;;5054192;28;20461;-78
2023/12/30 03:59:17;;;;;;;3.77;1.70;;;;;;;;;;5051617;28;20440;-76
2023/12/30 04:01:44;;;;;;;4.00;1.70;;;;;;;;;;5052697;28;20464;-77
2023/12/30 04:04:10;;;;;;;4.70;1.47;;;;;;;;;;5057099;28;20514;-80
2023/12/30 04:06:38;;;;;;;2.80;1.70;;;;;;;;;;5071897;28;21057;-78
2023/12/30 04:09:05;;;;;;;4.77;1.60;;;;;;;;;;5077023;28;20797;-78
2023/12/30 04:11:31;;;;;;;4.53;2.00;;;;;;;;;;5076580;28;20440;-79
2023/12/30 04:13:57;;;;;;;4.23;2.23;;;;;;;;;;5077144;28;20471;-80
2023/12/30 04:16:24;;;;;;;7.23;2.10;;;;;;;;;;5071651;28;20467;-79
2023/12/30 04:18:50;;;;;;;5.50;2.03;;;;;;;;;;5077980;28;20516;-79
2023/12/30 04:21:16;;;;;;;6.83;2.00;;;;;;;;;;5077486;28;20523;-77
2023/12/30 04:23:44;;;;;;;3.23;1.77;;;;;;;;;;5076188;28;20819;-79
2023/12/30 04:26:10;;;;;;;3.70;1.77;;;;;;;;;;5077775;28;20476;-79
2023/12/30 04:28:37;;;;;;;6.40;2.77;;;;;;;;;;5072698;28;21365;-76
2023/12/30 04:31:03;;;;;;;4.97;1.83;;;;;;;;;;5076941;28;20519;-79
2023/12/30 04:33:30;;;;;;;5.20;2.13;;;;;;;;;;5077377;28;20482;-79
2023/12/30 04:35:56;;;;;;;3.50;1.57;;;;;;;;;;5077002;28;20479;-79
2023/12/30 04:38:22;;;;;;;5.53;2.10;;;;;;;;;;5076886;28;20522;-78
2023/12/30 04:40:50;;;;;;;4.30;1.90;;;;;;;;;;5076438;28;20478;-76
2023/12/30 04:43:16;;;;;;;4.37;1.47;;;;;;;;;;5073021;28;20453;-79
2023/12/30 04:45:43;;;;;;;4.23;1.73;;;;;;;;;;5069753;28;20460;-79
2023/12/30 04:48:09;;;;;;;3.20;2.20;;;;;;;;;;5076694;28;20574;-79
2023/12/30 04:50:35;;;;;;;4.40;1.60;;;;;;;;;;5076750;28;20507;-77
2023/12/30 04:53:02;;;;;;;4.37;1.77;;;;;;;;;;5076505;28;20454;-79
2023/12/30 04:55:28;;;;;;;5.63;2.23;;;;;;;;;;5075855;28;20468;-79
2023/12/30 04:57:57;;;;;;;2.33;1.57;;;;;;;;;;5075835;28;20547;-77
2023/12/30 05:00:23;;;;;;;4.03;1.80;;;;;;;;;;5075103;28;20444;-75
2023/12/30 05:02:49;;;;;;;7.90;1.53;;;;;;;;;;5068078;28;20756;-79
2023/12/30 05:05:16;;;;;;;3.37;2.00;;;;;;;;;;5074273;28;20521;-79
2023/12/30 05:07:42;;;;;;;6.83;2.27;;;;;;;;;;5074967;28;20734;-75
2023/12/30 05:10:09;;;;;;;7.30;2.17;;;;;;;;;;5076489;28;20594;-77
2023/12/30 05:12:36;;;;;;;5.23;2.37;;;;;;;;;;5070172;28;20460;-78
2023/12/30 05:15:03;;;;;;;5.00;2.87;;;;;;;;;;5074145;28;20543;-79
2023/12/30 05:17:32;;;;;;;4.60;1.80;;;;;;;;;;5076221;28;20490;-78
2023/12/30 05:19:58;;;;;;;10.40;3.00;;;;;;;;;;5076585;28;20540;-76
2023/12/30 05:22:25;;;;;;;5.93;2.00;;;;;;;;;;5075994;28;20831;-79
2023/12/30 05:24:51;;;;;;;10.03;2.87;;;;;;;;;;5075942;28;20483;-79
2023/12/30 05:27:17;;;;;;;9.90;3.57;;;;;;;;;;5075858;28;20546;-79
2023/12/30 05:29:44;;;;;;;9.00;5.03;;;;;;;;;;5062097;28;20489;-79
2023/12/30 05:32:11;;;;;;;5.70;2.70;;;;;;;;;;5069535;28;20482;-79
2023/12/30 05:34:38;;;;;;;8.77;2.70;;;;;;;;;;5075227;28;20480;-78
2023/12/30 05:37:05;;;;;;;7.60;3.20;;;;;;;;;;5076323;28;20494;-77
2023/12/30 05:39:31;;;;;;;7.63;3.10;;;;;;;;;;5075485;28;20472;-79
2023/12/30 05:41:57;;;;;;;4.47;2.20;;;;;;;;;;5075531;28;21044;-79
2023/12/30 05:44:24;;;;;;;8.57;3.53;;;;;;;;;;5075107;28;20507;-79
2023/12/30 05:46:51;;;;;;;5.13;2.80;;;;;;;;;;5069851;28;20536;-79
2023/12/30 05:49:19;;;;;;;4.10;2.70;;;;;;;;;;5075792;28;20525;-78
2023/12/30 05:51:45;;;;;;;3.87;2.40;;;;;;;;;;5074373;28;20460;-74
2023/12/30 05:54:12;;;;;;;6.77;2.63;;;;;;;;;;5072456;28;20488;-76
2023/12/30 05:56:38;;;;;;;9.37;2.67;;;;;;;;;;5074190;28;20472;-76
2023/12/30 05:59:04;;;;;;;14.80;3.10;;;;;;;;;;5076076;28;20468;-75
2023/12/30 06:01:31;;;;;;;9.13;3.50;;;;;;;;;;5075318;28;20482;-76
2023/12/30 06:03:58;;;;;;;5.33;2.40;;;;;;;;;;5075572;28;21048;-79
2023/12/30 06:06:26;;;;;;;12.23;3.07;;;;;;;;;;5075719;28;20508;-79
2023/12/30 06:08:52;;;;;;;10.10;2.90;;;;;;;;;;5075205;28;20588;-79
2023/12/30 06:11:19;;;;;;;7.47;3.10;;;;;;;;;;5066912;28;20436;-77
2023/12/30 06:13:46;;;;;;;10.30;3.10;;;;;;;;;;5069870;28;20996;-80
2023/12/30 06:16:12;;;;;;;6.47;2.40;;;;;;;;;;5072325;28;20535;-75
2023/12/30 06:18:38;;;;;;;9.80;3.40;;;;;;;;;;5070853;28;20540;-78
2023/12/30 06:21:05;;;;;;;10.60;2.90;;;;;;;;;;5076076;28;21043;-77
2023/12/30 06:23:33;;;;;;;5.83;3.20;;;;;;;;;;5075165;28;20467;-79
2023/12/30 06:26:00;;;;;;;5.40;2.60;;;;;;;;;;5075325;28;20448;-77
2023/12/30 06:28:27;;;;;;;8.70;3.13;;;;;;;;;;5075453;28;20468;-79
2023/12/30 06:30:53;;;;;;;7.50;2.90;;;;;;;;;;5075893;28;20984;-79
2023/12/30 06:33:21;;;;;;;9.80;2.90;;;;;;;;;;5075472;28;20566;-80
2023/12/30 06:35:47;;;;;;;11.50;3.07;;;;;;;;;;5075890;28;20439;-78
2023/12/30 06:38:13;;;;;;;8.80;3.57;;;;;;;;;;5076147;28;20509;-79
2023/12/30 06:40:42;;;;;;;9.10;3.30;;;;;;;;;;5074951;28;20446;-79
2023/12/30 06:43:08;;;;;;;19.83;3.83;;;;;;;;;;5075448;28;20451;-79
2023/12/30 06:45:35;;;;;;;7.40;3.50;;;;;;;;;;5075447;28;20442;-79
2023/12/30 06:48:01;;;;;;;9.60;2.73;;;;;;;;;;5073826;28;20444;-75
2023/12/30 06:50:28;;;;;;;10.13;3.43;;;;;;;;;;5072783;28;20498;-80
2023/12/30 06:52:54;;;;;;;9.90;3.03;;;;;;;;;;5075241;28;20975;-77
2023/12/30 06:55:21;;;;;;;6.60;3.50;;;;;;;;;;5075430;28;20482;-78
2023/12/30 06:57:49;;;;;;;8.43;2.77;;;;;;;;;;5074890;28;20498;-79
2023/12/30 07:00:15;;;;;;;8.80;3.27;;;;;;;;;;5075360;28;20995;-76
2023/12/30 07:02:42;;;;;;;10.77;3.20;;;;;;;;;;5073225;28;20491;-79
2023/12/30 07:05:08;;;;;;;7.47;2.50;;;;;;;;;;5074594;28;20480;-79
2023/12/30 07:07:35;;;;;;;7.47;3.17;;;;;;;;;;5067664;28;20512;-77
2023/12/30 07:10:03;;;;;;;9.53;3.30;;;;;;;;;;5074030;28;20489;-80
2023/12/30 07:12:29;;;;;;;6.73;2.63;;;;;;;;;;5074829;28;20447;-79
2023/12/30 07:14:58;;;;;;;4.60;2.40;;;;;;;;;;5074222;28;20467;-74
2023/12/30 07:17:24;;;;;;;7.90;2.77;;;;;;;;;;5075078;28;20448;-77
2023/12/30 07:19:51;;;;;;;10.90;4.33;;;;;;;;;;5074399;28;20462;-76
2023/12/30 07:22:19;;;;;;;9.53;3.63;;;;;;;;;;5075023;28;20550;-76
2023/12/30 07:24:46;;;;;;;7.33;3.30;;;;;;;;;;5074172;28;20912;-77
2023/12/30 07:27:13;;;;;;;9.70;3.70;;;;;;;;;;5066355;28;20494;-77
2023/12/30 07:29:39;;;;;;;7.03;3.03;;;;;;;;;;5077329;28;20495;-79
2023/12/30 07:32:07;;;;;;;5.13;3.03;;;;;;;;;;5077965;28;20452;-80
2023/12/30 07:34:33;;;;;;;12.50;3.63;;;;;;;;;;5072676;28;20491;-79
2023/12/30 07:37:01;;;;;;;6.63;3.40;;;;;;;;;;5067357;28;20445;-78
2023/12/30 07:39:27;;;;;;;8.37;3.70;;;;;;;;;;5073265;28;20456;-79
2023/12/30 07:41:54;;;;;;;12.27;5.53;;;;;;;;;;5077233;28;20872;-76
2023/12/30 07:44:20;;;;;;;10.53;3.57;;;;;;;;;;5077271;28;20809;-77
2023/12/30 07:46:47;;;;;;;4.37;3.60;;;;;;;;;;5076058;28;20500;-78
2023/12/30 07:49:17;;;;;;;4.67;3.30;;;;;;;;;;5076573;28;20519;-80
2023/12/30 07:51:43;;;;;;;10.90;4.20;;;;;;;;;;5073241;28;20440;-74
2023/12/30 07:54:09;;;;;;;7.57;3.50;;;;;;;;;;5077514;28;20483;-79
2023/12/30 07:56:36;;;;;;;9.53;3.60;;;;;;;;;;5077832;28;20467;-78
2023/12/30 07:59:02;;;;;;;8.50;3.23;;;;;;;;;;5078123;28;20622;-77
2023/12/30 08:01:29;;;;;;;5.97;3.10;;;;;;;;;;5078387;28;20606;-79
2023/12/30 08:03:55;;;;;;;7.70;3.60;;;;;;;;;;5077700;28;20468;-79
2023/12/30 08:06:23;;;;;;;6.63;3.67;;;;;;;;;;5064938;28;20551;-78
2023/12/30 08:08:49;;;;;;;11.07;3.90;;;;;;;;;;5057083;28;20516;-79
2023/12/30 08:11:16;;;;;;;7.20;3.27;;;;;;;;;;5053887;28;20529;-79
2023/12/30 08:13:41;;;;;;;6.10;3.10;;;;;;;;;;5051790;28;20496;-77
2023/12/30 08:16:08;;;;;;;4.77;3.30;;;;;;;;;;5056698;28;20445;-77
2023/12/30 08:18:34;;;;;;;5.50;3.30;;;;;;;;;;5057865;28;20214;-78
2023/12/30 08:21:01;;;;;;;5.43;3.40;;;;;;;;;;5056200;28;20448;-79
2023/12/30 08:23:28;;;;;;;6.17;3.00;;;;;;;;;;5053133;28;20529;-79
2023/12/30 08:25:55;;;;;;;7.87;3.70;;;;;;;;;;5057109;28;21049;-79
2023/12/30 08:28:21;;;;;;;6.90;4.10;;;;;;;;;;5056941;28;20508;-79
2023/12/30 08:30:48;;;;;;;7.63;4.60;;;;;;;;;;5057846;28;20567;-80
2023/12/30 08:33:14;;;;;;;6.70;3.10;;;;;;;;;;5057674;28;20512;-76
2023/12/30 08:35:40;;;;;;;6.20;3.00;;;;;;;;;;5057859;28;20517;-79
2023/12/30 08:38:07;;;;;;;7.43;3.70;;;;;;;;;;5057134;28;20517;-78
2023/12/30 08:40:35;;;;;;;7.77;3.60;;;;;;;;;;5054059;28;20445;-78
2023/12/30 08:43:01;;;;;;;7.53;3.60;;;;;;;;;;5057075;28;20456;-79
2023/12/30 08:45:28;;;;;;;6.90;3.43;;;;;;;;;;5056923;28;20499;-80
2023/12/30 08:47:54;;;;;;;6.60;3.97;;;;;;;;;;5057275;28;20479;-78
2023/12/30 08:50:21;;;;;;;5.90;3.77;;;;;;;;;;5056896;28;20492;-75
2023/12/30 08:52:47;;;;;;;7.97;3.33;;;;;;;;;;5057218;28;20524;-75
2023/12/30 08:55:14;;;;;;;6.07;3.50;;;;;;;;;;5056640;28;20505;-76
2023/12/30 08:57:43;;;;;;;6.37;3.43;;;;;;;;;;5056313;28;20483;-78
2023/12/30 09:00:10;;;;;;;8.03;4.00;;;;;;;;;;5056238;28;20510;-79
2023/12/30 09:02:36;;;;;;;15.37;5.20;;;;;;;;;;5056252;28;20484;-75
2023/12/30 09:05:03;;;;;;;7.87;3.87;;;;;;;;;;5057182;28;20559;-76
2023/12/30 09:07:32;;;;;;;6.83;3.47;;;;;;;;;;5075624;28;20934;-79
2023/12/30 09:09:59;;;;;;;6.60;3.50;;;;;;;;;;5076372;28;20558;-77
2023/12/30 09:12:24;;;;;;;8.67;4.57;;;;;;;;;;5075567;28;20534;-75
2023/12/30 09:14:52;;;;;;;12.90;4.97;;;;;;;;;;5075443;28;20659;-79
2023/12/30 09:17:18;;;;;;;15.60;4.50;;;;;;;;;;5073619;28;20244;-78
2023/12/30 09:19:45;;;;;;;9.67;5.20;;;;;;;;;;5074968;28;20539;-79
2023/12/30 09:22:12;;;;;;;7.67;4.37;;;;;;;;;;5076498;28;20487;-80
2023/12/30 09:24:38;;;;;;;8.73;4.07;;;;;;;;;;5069195;28;20495;-77
2023/12/30 09:27:05;;;;;;;8.37;3.80;;;;;;;;;;5074653;28;20520;-76
2023/12/30 09:29:31;;;;;;;7.13;3.73;;;;;;;;;;5071950;28;20445;-76
2023/12/30 09:31:59;;;;;;;6.67;4.10;;;;;;;;;;5072754;28;20543;-76
2023/12/30 09:34:25;;;;;;;8.67;3.90;;;;;;;;;;5065496;28;20525;-79
2023/12/30 09:36:52;;;;;;;8.17;6.50;;;;;;;;;;5076003;28;20452;-77
2023/12/30 09:39:18;;;;;;;7.20;6.03;;;;;;;;;;5075469;28;20948;-77
2023/12/30 09:41:44;;;;;;;10.50;4.40;;;;;;;;;;5075080;28;21036;-78
2023/12/30 09:44:13;;;;;;;5.50;3.30;;;;;;;;;;5074980;28;20562;-77
2023/12/30 09:46:40;;;;;;;8.00;3.60;;;;;;;;;;5076393;28;20503;-78
2023/12/30 09:49:07;;;;;;;12.47;4.13;;;;;;;;;;5074893;28;20483;-79
2023/12/30 09:51:34;;;;;;;6.37;4.10;;;;;;;;;;5067213;28;20476;-76
2023/12/30 09:54:01;;;;;;;7.77;4.13;;;;;;;;;;5073563;28;20455;-74
2023/12/30 09:56:27;;;;;;;6.00;4.40;;;;;;;;;;5075227;28;20896;-80
2023/12/30 09:58:54;;;;;;;9.57;4.10;;;;;;;;;;5074382;28;20452;-79
2023/12/30 10:01:20;;;;;;;11.27;4.33;;;;;;;;;;5075774;28;20710;-79
2023/12/30 10:03:47;;;;;;;8.90;3.50;;;;;;;;;;5075676;28;20511;-79
2023/12/30 10:06:15;;;;;;;8.27;3.50;;;;;;;;;;5064188;28;20580;-77
2023/12/30 10:08:42;;;;;;;10.30;5.10;;;;;;;;;;5046508;28;20516;-77
2023/12/30 10:11:09;;;;;;;12.10;4.23;;;;;;;;;;5048229;28;20678;-79
2023/12/30 10:13:36;;;;;;;5.33;3.57;;;;;;;;;;5054833;28;21040;-77
2023/12/30 10:16:05;;;;;;;12.90;5.50;;;;;;;;;;5054830;28;20555;-77
2023/12/30 10:18:31;;;;;;;6.40;3.73;;;;;;;;;;5048886;28;20479;-77
2023/12/30 10:20:58;;;;;;;4.20;3.00;;;;;;;;;;5052788;28;20532;-78
2023/12/30 10:23:26;;;;;;;4.80;3.23;;;;;;;;;;5055415;28;20441;-79
2023/12/30 10:25:53;;;;;;;11.47;4.03;;;;;;;;;;5052189;28;20889;-78
2023/12/30 10:28:19;;;;;;;7.87;3.67;;;;;;;;;;5051531;28;20487;-77
2023/12/30 10:30:47;;;;;;;6.37;3.17;;;;;;;;;;5055201;28;20906;-76
2023/12/30 10:33:14;;;;;;;7.90;3.80;;;;;;;;;;5054952;28;20452;-79
2023/12/30 10:35:41;;;;;;;13.37;4.10;;;;;;;;;;5055047;28;21024;-79
2023/12/30 10:38:08;;;;;;;8.47;3.93;;;;;;;;;;5054984;28;20487;-78
2023/12/30 10:40:36;;;;;;;11.77;4.70;;;;;;;;;;5054980;28;20500;-77
2023/12/30 10:43:03;;;;;;;10.63;3.90;;;;;;;;;;5050777;28;20489;-77
2023/12/30 10:45:30;;;;;;;4.90;3.07;;;;;;;;;;5054353;28;20495;-77
2023/12/30 10:47:56;;;;;;;8.27;3.70;;;;;;;;;;5054431;28;20862;-75
2023/12/30 10:50:23;;;;;;;4.30;3.53;;;;;;;;;;5054414;28;20481;-77
2023/12/30 10:52:51;;;;;;;8.97;4.07;;;;;;;;;;5049221;28;20502;-80
2023/12/30 10:55:18;;;;;;;7.60;3.50;;;;;;;;;;5052736;28;20481;-79
2023/12/30 10:57:49;;;;;;;4.23;3.23;;;;;;;;;;5050344;28;20453;-79
2023/12/30 11:00:17;;;;;;;8.33;3.77;;;;;;;;;;5045673;28;20441;-77
2023/12/30 11:02:45;;;;;;;5.77;3.63;;;;;;;;;;5053792;28;20449;-79
2023/12/30 11:05:15;;;;;;;5.83;4.03;;;;;;;;;;5059586;28;20460;-76
2023/12/30 11:07:41;;;;;;;8.43;5.50;;;;;;;;;;5076442;28;20534;-77
2023/12/30 11:10:17;;;;;;;7.07;3.40;;;;;;;;;;5071301;28;20588;-78
2023/12/30 11:12:44;;;;;;;8.50;3.57;;;;;;;;;;5077637;28;20903;-79
2023/12/30 11:15:23;;;;;;;9.70;4.83;;;;;;;;;;5078075;28;20507;-79
2023/12/30 11:17:50;;;;;;;10.37;5.10;;;;;;;;;;5078451;28;20507;-79
2023/12/30 11:20:24;;;;;;;10.73;4.50;;;;;;;;;;5077839;28;20458;-78
2023/12/30 11:22:51;;;;;;;12.53;4.77;;;;;;;;;;5078069;28;20443;-80
2023/12/30 11:25:18;;;;;;;15.17;4.30;;;;;;;;;;5075326;28;20490;-78
2023/12/30 11:27:47;;;;;;;10.67;5.23;;;;;;;;;;5073075;28;20543;-79
2023/12/30 11:30:16;;;;;;;9.20;5.00;;;;;;;;;;5070702;28;20551;-79
2023/12/30 11:32:44;;;;;;;10.93;4.60;;;;;;;;;;5078243;28;20479;-79
2023/12/30 11:35:12;;;;;;;10.03;4.70;;;;;;;;;;5077886;28;20543;-79
2023/12/30 11:37:40;;;;;;;9.63;4.73;;;;;;;;;;5078319;28;20523;-79
2023/12/30 11:40:09;;;;;;;7.83;4.30;;;;;;;;;;5078258;28;20482;-80
2023/12/30 11:42:35;;;;;;;6.27;4.93;;;;;;;;;;5076890;28;20452;-77
2023/12/30 11:45:02;;;;;;;11.30;5.27;;;;;;;;;;5077670;28;20484;-77
2023/12/30 11:47:30;;;;;;;11.70;5.50;;;;;;;;;;5078118;28;20554;-79
2023/12/30 11:50:02;;;;;;;10.90;4.93;;;;;;;;;;5077926;28;20452;-77
2023/12/30 11:52:29;;;;;;;6.57;4.80;;;;;;;;;;5076270;28;20432;-79
2023/12/30 11:54:55;;;;;;;10.03;5.87;;;;;;;;;;5076852;28;20548;-78
2023/12/30 11:57:22;;;;;;;9.20;3.90;;;;;;;;;;5074121;28;20515;-75
2023/12/30 11:59:49;;;;;;;6.30;4.67;;;;;;;;;;5077686;28;20536;-76
2023/12/30 12:02:18;;;;;;;6.43;4.90;;;;;;;;;;5077376;28;20456;-74
2023/12/30 12:04:44;;;;;;;9.13;5.00;;;;;;;;;;5067992;28;20531;-78
2023/12/30 12:07:12;;;;;;;5.87;5.27;;;;;;;;;;5077476;28;20479;-79
2023/12/30 12:09:40;;;;;;;7.27;4.97;;;;;;;;;;5077478;28;20478;-78
2023/12/30 12:12:07;;;;;;;10.80;4.80;;;;;;;;;;5074227;28;20483;-80
2023/12/30 12:14:33;;;;;;;6.00;4.93;;;;;;;;;;5066430;28;20538;-78
2023/12/30 12:17:03;;;;;;;12.33;5.50;;;;;;;;;;5062725;28;20484;-78
2023/12/30 12:19:30;;;;;;;13.10;5.43;;;;;;;;;;5061818;28;20506;-77
2023/12/30 12:21:59;;;;;;;8.23;6.10;;;;;;;;;;5072136;28;20916;-77
2023/12/30 12:24:27;;;;;;;10.87;4.53;;;;;;;;;;5077361;28;20456;-80
2023/12/30 12:26:53;;;;;;;9.90;5.77;;;;;;;;;;5073397;28;20535;-79
2023/12/30 12:29:20;;;;;;;7.63;6.10;;;;;;;;;;5075531;28;20479;-80
2023/12/30 12:31:47;;;;;;;8.93;5.20;;;;;;;;;;5077451;28;20487;-80
2023/12/30 12:34:19;;;;;;;7.50;6.10;;;;;;;;;;5072330;28;20476;-79
2023/12/30 12:36:46;;;;;;;11.23;5.67;;;;;;;;;;5077264;28;20519;-78
2023/12/30 12:39:12;;;;;;;7.50;5.07;;;;;;;;;;5076077;28;20527;-80
2023/12/30 12:41:40;;;;;;;10.30;5.90;;;;;;;;;;5069982;28;20532;-79
2023/12/30 12:44:06;;;;;;;13.13;5.30;;;;;;;;;;5073733;28;21092;-76
2023/12/30 12:46:33;;;;;;;9.43;5.07;;;;;;;;;;5076408;28;20476;-78
2023/12/30 12:48:59;;;;;;;6.70;4.53;;;;;;;;;;5076732;28;20491;-79
2023/12/30 12:51:26;;;;;;;9.37;5.77;;;;;;;;;;5076601;28;20475;-79
2023/12/30 12:53:52;;;;;;;9.13;5.27;;;;;;;;;;5074979;28;20478;-78
2023/12/30 12:56:18;;;;;;;8.37;5.70;;;;;;;;;;5074637;28;20478;-77
2023/12/30 12:58:47;;;;;;;10.63;5.33;;;;;;;;;;5074573;28;20538;-78
2023/12/30 13:01:13;;;;;;;9.17;5.97;;;;;;;;;;5076538;28;20857;-77
2023/12/30 13:03:39;;;;;;;11.80;6.67;;;;;;;;;;5076144;28;20475;-77
2023/12/30 13:06:12;;;;;;;8.10;6.53;;;;;;;;;;5066247;28;20499;-76
2023/12/30 13:08:39;;;;;;;8.20;5.60;;;;;;;;;;5052153;28;20449;-80
2023/12/30 13:11:06;;;;;;;8.13;5.97;;;;;;;;;;5056109;28;20576;-78
2023/12/30 13:13:32;;;;;;;11.00;5.90;;;;;;;;;;5055076;28;20492;-79
2023/12/30 13:16:00;;;;;;;16.60;6.10;;;;;;;;;;5053622;28;20461;-77
2023/12/30 13:18:28;;;;;;;9.20;5.83;;;;;;;;;;5056184;28;20445;-76
2023/12/30 13:20:55;;;;;;;10.23;7.47;;;;;;;;;;5056383;28;20544;-77
2023/12/30 13:23:21;;;;;;;12.20;5.67;;;;;;;;;;5049521;28;20914;-79
2023/12/30 13:25:48;;;;;;;13.23;6.90;;;;;;;;;;5055173;28;20492;-79
2023/12/30 13:28:14;;;;;;;9.67;5.93;;;;;;;;;;5055472;28;20497;-77
2023/12/30 13:30:43;;;;;;;9.43;6.20;;;;;;;;;;5045785;28;20807;-79
2023/12/30 13:33:15;;;;;;;7.80;5.63;;;;;;;;;;5055854;28;20985;-79
2023/12/30 13:35:42;;;;;;;11.27;7.97;;;;;;;;;;5054845;28;20459;-77
2023/12/30 13:38:12;;;;;;;13.37;6.03;;;;;;;;;;5056548;28;20449;-79
2023/12/30 13:40:38;;;;;;;9.77;5.30;;;;;;;;;;5053050;28;20528;-76
2023/12/30 13:43:07;;;;;;;10.10;5.77;;;;;;;;;;5054898;28;20544;-80
2023/12/30 13:45:34;;;;;;;11.63;5.20;;;;;;;;;;5048842;28;20464;-77
2023/12/30 13:50:49;;;;;;;16.43;5.40;;;;;;;;;;5048664;28;20449;-77
2023/12/30 13:53:16;;;;;;;13.23;5.30;;;;;;;;;;5050067;28;20482;-79
2023/12/30 13:55:42;;;;;;;14.07;5.70;;;;;;;;;;5054020;28;20460;-80
2023/12/30 13:58:08;;;;;;;9.70;5.20;;;;;;;;;;5055483;28;20480;-78
2023/12/30 14:00:36;;;;;;;18.03;6.33;;;;;;;;;;5055365;28;20532;-80
2023/12/30 14:03:04;;;;;;;14.03;6.60;;;;;;;;;;5055278;28;20524;-77
2023/12/30 14:05:35;;;;;;;11.00;7.07;;;;;;;;;;5060035;28;20499;-79
2023/12/30 14:08:14;;;;;;;10.13;6.50;;;;;;;;;;5073413;28;20500;-79
2023/12/30 14:10:46;;;;;;;10.50;6.60;;;;;;;;;;5072649;28;20459;-77
2023/12/30 14:13:13;;;;;;;11.83;5.70;;;;;;;;;;5073196;28;20452;-79
2023/12/30 14:15:39;;;;;;;14.87;6.33;;;;;;;;;;5072795;28;20567;-79
2023/12/30 14:18:07;;;;;;;14.13;6.03;;;;;;;;;;5075598;28;20456;-79
2023/12/30 14:20:33;;;;;;;10.00;6.47;;;;;;;;;;5072476;28;20480;-79
2023/12/30 14:23:00;;;;;;;11.33;6.73;;;;;;;;;;5065727;28;20490;-77
2023/12/30 14:25:29;;;;;;;11.20;6.43;;;;;;;;;;5071622;28;20460;-77
2023/12/30 14:27:55;;;;;;;8.50;5.67;;;;;;;;;;5074410;28;20456;-79
2023/12/30 14:30:21;;;;;;;18.00;6.97;;;;;;;;;;5063966;28;20447;-79
2023/12/30 14:32:48;;;;;;;9.13;6.20;;;;;;;;;;5068793;28;20929;-78
2023/12/30 14:35:15;;;;;;;10.87;6.17;;;;;;;;;;5074144;28;20519;-80
2023/12/30 14:37:42;;;;;;;7.10;5.60;;;;;;;;;;5074728;28;20448;-77
2023/12/30 14:40:09;;;;;;;8.80;6.30;;;;;;;;;;5076686;28;20542;-78
2023/12/30 14:42:37;;;;;;;12.63;5.17;;;;;;;;;;5073729;28;20441;-80